createdAt,value
2023-06-19T00:01:30.684Z,16.85
2023-06-19T00:03:57.168Z,15.55
2023-06-19T00:06:23.711Z,18.75
2023-06-19T00:08:50.161Z,21.45
2023-06-19T00:11:16.794Z,17.08
2023-06-19T00:13:43.351Z,16.90
2023-06-19T00:16:10.164Z,16.70
2023-06-19T00:18:40.956Z,16.13
2023-06-19T00:21:08.757Z,20.38
2023-06-19T00:23:35.417Z,18.30
2023-06-19T00:26:04.831Z,16.63
2023-06-19T00:28:31.863Z,16.65
2023-06-19T00:30:58.605Z,16.05
2023-06-19T00:33:25.258Z,17.45
2023-06-19T00:35:52.246Z,18.50
2023-06-19T00:38:18.891Z,19.90
2023-06-19T00:40:45.370Z,17.92
2023-06-19T00:43:12.037Z,17.35
2023-06-19T00:45:38.506Z,20.25
2023-06-19T00:48:05.754Z,17.52
2023-06-19T00:50:32.528Z,19.73
2023-06-19T00:53:00.562Z,17.23
2023-06-19T00:55:31.068Z,17.63
2023-06-19T00:57:57.814Z,18.55
2023-06-19T01:00:24.562Z,17.38
2023-06-19T01:02:51.482Z,16.95
2023-06-19T01:05:19.161Z,18.23
2023-06-19T01:08:03.536Z,18.70
2023-06-19T01:10:37.697Z,18.45
2023-06-19T01:13:31.620Z,18.45
2023-06-19T01:15:59.157Z,19.08
2023-06-19T01:18:27.993Z,17.63
2023-06-19T01:20:54.482Z,20.30
2023-06-19T01:23:21.026Z,18.73
2023-06-19T01:25:47.493Z,17.50
2023-06-19T01:28:14.377Z,19.48
2023-06-19T01:30:42.919Z,17.90
2023-06-19T01:33:15.982Z,20.92
2023-06-19T01:35:44.279Z,18.25
2023-06-19T01:38:13.450Z,18.65
2023-06-19T01:40:41.755Z,18.65
2023-06-19T01:43:09.806Z,18.30
2023-06-19T01:45:36.597Z,19.42
2023-06-19T01:48:03.569Z,18.92
2023-06-19T01:50:30.228Z,19.17
2023-06-19T01:52:56.778Z,18.50
2023-06-19T01:55:23.423Z,21.83
2023-06-19T01:57:50.030Z,18.77
2023-06-19T02:00:16.952Z,17.85
2023-06-19T02:02:43.544Z,17.08
2023-06-19T02:05:10.524Z,17.52
2023-06-19T02:07:37.014Z,16.88
2023-06-19T02:10:03.717Z,17.85
2023-06-19T02:12:30.246Z,18.13
2023-06-19T02:14:56.709Z,18.15
2023-06-19T02:17:23.233Z,16.90
2023-06-19T02:19:49.740Z,17.52
2023-06-19T02:22:16.239Z,18.45
2023-06-19T02:24:42.828Z,18.30
2023-06-19T02:27:09.484Z,20.30
2023-06-19T02:29:35.979Z,19.55
2023-06-19T02:32:03.718Z,18.27
2023-06-19T02:34:30.395Z,19.40
2023-06-19T02:36:56.960Z,19.52
2023-06-19T02:39:24.153Z,18.83
2023-06-19T02:41:50.834Z,21.10
2023-06-19T02:44:17.351Z,20.95
2023-06-19T02:46:43.823Z,18.73
2023-06-19T02:49:10.319Z,17.88
2023-06-19T02:51:36.817Z,18.35
2023-06-19T02:54:03.313Z,20.38
2023-06-19T02:56:29.893Z,18.05
2023-06-19T02:58:56.435Z,19.95
2023-06-19T03:01:23.031Z,18.20
2023-06-19T03:03:49.878Z,18.42
2023-06-19T03:06:16.419Z,18.30
2023-06-19T03:08:42.909Z,18.50
2023-06-19T03:11:09.448Z,18.77
2023-06-19T03:13:48.061Z,19.73
2023-06-19T03:16:17.966Z,19.02
2023-06-19T03:18:50.834Z,17.42
2023-06-19T03:21:20.953Z,17.20
2023-06-19T03:23:47.659Z,17.80
2023-06-19T03:26:14.315Z,18.17
2023-06-19T03:28:40.969Z,21.50
2023-06-19T03:31:07.480Z,17.98
2023-06-19T03:33:34.000Z,18.88
2023-06-19T03:36:00.470Z,17.10
2023-06-19T03:38:27.096Z,17.27
2023-06-19T03:40:53.584Z,16.75
2023-06-19T03:43:20.068Z,17.83
2023-06-19T03:45:46.772Z,19.55
2023-06-19T03:48:13.460Z,17.77
2023-06-19T03:50:40.056Z,18.17
2023-06-19T03:53:06.620Z,18.98
2023-06-19T03:55:33.246Z,20.65
2023-06-19T03:57:59.755Z,18.50
2023-06-19T04:00:26.458Z,19.30
2023-06-19T04:02:53.286Z,19.08
2023-06-19T04:05:20.892Z,19.50
2023-06-19T04:07:47.416Z,18.85
2023-06-19T04:10:14.084Z,19.08
2023-06-19T04:12:41.638Z,20.30
2023-06-19T04:15:09.469Z,19.30
2023-06-19T04:17:36.001Z,21.42
2023-06-19T04:20:04.430Z,22.05
2023-06-19T04:22:30.928Z,21.42
2023-06-19T04:24:57.428Z,19.60
2023-06-19T04:27:23.919Z,18.35
2023-06-19T04:29:50.530Z,19.35
2023-06-19T04:32:17.060Z,19.38
2023-06-19T04:34:47.148Z,18.83
2023-06-19T04:37:13.808Z,19.98
2023-06-19T04:39:40.273Z,19.35
2023-06-19T04:42:07.344Z,18.65
2023-06-19T04:44:34.763Z,18.67
2023-06-19T04:47:04.342Z,19.77
2023-06-19T04:49:31.690Z,18.63
2023-06-19T04:51:58.988Z,18.98
2023-06-19T04:54:26.312Z,19.02
2023-06-19T04:56:54.325Z,18.27
2023-06-19T04:59:21.301Z,18.20
2023-06-19T05:01:47.851Z,17.45
2023-06-19T05:04:14.658Z,20.35
2023-06-19T05:06:41.193Z,18.52
2023-06-19T05:09:07.722Z,19.55
2023-06-19T05:11:34.392Z,19.27
2023-06-19T05:14:01.009Z,19.00
2023-06-19T05:16:27.602Z,18.80
2023-06-19T05:18:54.261Z,18.73
2023-06-19T05:21:21.102Z,20.35
2023-06-19T05:23:51.873Z,21.85
2023-06-19T05:26:18.462Z,18.80
2023-06-19T05:28:44.960Z,20.90
2023-06-19T05:31:11.462Z,19.60
2023-06-19T05:33:38.050Z,18.30
2023-06-19T05:36:04.812Z,21.35
2023-06-19T05:38:31.904Z,21.88
2023-06-19T05:40:58.774Z,19.90
2023-06-19T05:43:28.187Z,19.35
2023-06-19T05:45:57.051Z,19.90
2023-06-19T05:48:23.693Z,20.35
2023-06-19T05:50:50.157Z,22.02
2023-06-19T05:53:16.639Z,19.77
2023-06-19T05:55:43.554Z,18.42
2023-06-19T05:58:10.150Z,19.23
2023-06-19T06:00:36.682Z,18.50
2023-06-19T06:03:03.512Z,18.25
2023-06-19T06:05:30.249Z,18.75
2023-06-19T06:07:57.090Z,17.92
2023-06-19T06:10:25.295Z,18.05
2023-06-19T06:12:52.286Z,18.55
2023-06-19T06:15:19.289Z,18.08
2023-06-19T06:17:45.871Z,19.08
2023-06-19T06:20:13.447Z,18.08
2023-06-19T06:22:43.902Z,16.63
2023-06-19T06:25:14.170Z,18.75
2023-06-19T06:27:41.302Z,17.60
2023-06-19T06:30:08.320Z,19.60
2023-06-19T06:32:35.282Z,18.42
2023-06-19T06:35:02.213Z,16.98
2023-06-19T06:37:28.706Z,18.65
2023-06-19T06:39:55.294Z,17.95
2023-06-19T06:42:21.765Z,18.30
2023-06-19T06:44:48.247Z,18.45
2023-06-19T06:47:14.879Z,18.08
2023-06-19T06:49:41.371Z,18.52
2023-06-19T06:52:08.356Z,18.35
2023-06-19T06:54:34.966Z,18.50
2023-06-19T06:57:01.465Z,17.92
2023-06-19T06:59:28.305Z,17.73
2023-06-19T07:01:56.055Z,19.00
2023-06-19T07:04:22.937Z,18.08
2023-06-19T07:06:50.313Z,17.48
2023-06-19T07:09:16.906Z,18.98
2023-06-19T07:11:43.486Z,20.23
2023-06-19T07:14:09.993Z,19.92
2023-06-19T07:16:36.723Z,20.63
2023-06-19T07:19:03.308Z,18.30
2023-06-19T07:21:31.109Z,20.63
2023-06-19T07:23:58.643Z,18.77
2023-06-19T07:26:25.198Z,19.20
2023-06-19T07:28:51.727Z,20.80
2023-06-19T07:31:18.231Z,19.63
2023-06-19T07:33:44.772Z,19.52
2023-06-19T07:36:15.079Z,19.80
2023-06-19T07:38:43.200Z,19.50
2023-06-19T07:41:11.018Z,19.52
2023-06-19T07:43:38.587Z,19.90
2023-06-19T07:46:05.795Z,20.33
2023-06-19T07:48:32.495Z,19.02
2023-06-19T07:50:59.036Z,18.35
2023-06-19T07:53:25.595Z,18.88
2023-06-19T07:55:52.084Z,18.13
2023-06-19T07:58:19.363Z,19.75
2023-06-19T08:00:46.073Z,18.83
2023-06-19T08:03:12.688Z,18.33
2023-06-19T08:05:39.415Z,22.13
2023-06-19T08:08:05.889Z,20.95
2023-06-19T08:10:32.625Z,18.38
2023-06-19T08:12:59.367Z,18.05
2023-06-19T08:15:26.089Z,18.48
2023-06-19T08:17:52.633Z,19.27
2023-06-19T08:20:20.816Z,21.70
2023-06-19T08:22:47.412Z,19.63
2023-06-19T08:25:14.104Z,19.58
2023-06-19T08:27:40.635Z,19.15
2023-06-19T08:30:08.151Z,18.00
2023-06-19T08:32:36.035Z,22.17
2023-06-19T08:35:02.793Z,20.38
2023-06-19T08:37:29.887Z,16.75
2023-06-19T08:39:59.715Z,18.05
2023-06-19T08:42:26.382Z,17.77
2023-06-19T08:44:52.856Z,19.13
2023-06-19T08:47:19.392Z,17.35
2023-06-19T08:49:46.007Z,18.38
2023-06-19T08:52:12.724Z,17.95
2023-06-19T08:54:45.273Z,18.00
2023-06-19T08:57:13.362Z,21.15
2023-06-19T08:59:40.249Z,18.85
2023-06-19T09:02:07.752Z,20.85
2023-06-19T09:04:34.993Z,19.73
2023-06-19T09:07:05.267Z,21.77
2023-06-19T09:09:33.949Z,18.95
2023-06-19T09:12:07.228Z,18.05
2023-06-19T09:14:37.466Z,20.23
2023-06-19T09:17:05.705Z,18.52
2023-06-19T09:19:32.826Z,19.98
2023-06-19T09:22:10.057Z,19.55
2023-06-19T09:24:38.933Z,17.65
2023-06-19T09:27:14.794Z,19.00
2023-06-19T09:29:42.756Z,18.70
2023-06-19T09:32:21.681Z,20.30
2023-06-19T09:34:50.479Z,22.90
2023-06-19T09:37:22.587Z,18.25
2023-06-19T09:39:54.029Z,20.23
2023-06-19T09:42:29.367Z,17.75
2023-06-19T09:45:01.023Z,17.77
2023-06-19T09:47:32.657Z,20.10
2023-06-19T09:52:26.578Z,19.70
2023-06-19T09:54:54.758Z,20.83
2023-06-19T09:57:22.349Z,18.00
2023-06-19T09:59:53.807Z,17.48
2023-06-19T10:02:22.125Z,18.88
2023-06-19T10:04:54.150Z,16.90
2023-06-19T10:07:24.949Z,17.23
2023-06-19T10:10:05.220Z,18.20
2023-06-19T10:12:40.579Z,17.75
2023-06-19T10:15:21.226Z,16.75
2023-06-19T10:18:00.367Z,16.33
2023-06-19T10:20:34.997Z,20.98
2023-06-19T10:23:06.326Z,17.45
2023-06-19T10:25:35.422Z,18.67
2023-06-19T10:28:02.872Z,17.27
2023-06-19T10:30:31.023Z,17.75
2023-06-19T10:32:58.389Z,19.70
2023-06-19T10:35:25.567Z,18.33
2023-06-19T10:37:52.424Z,16.83
2023-06-19T10:40:19.253Z,17.15
2023-06-19T10:42:46.373Z,18.23
2023-06-19T10:45:17.001Z,18.10
2023-06-19T10:47:44.562Z,18.60
2023-06-19T10:50:15.721Z,19.65
2023-06-19T10:52:43.957Z,18.98
2023-06-19T10:55:11.498Z,18.98
2023-06-19T10:57:38.192Z,18.85
2023-06-19T11:00:14.538Z,18.23
2023-06-19T11:02:44.509Z,18.55
2023-06-19T11:05:12.849Z,18.90
2023-06-19T11:07:39.710Z,20.42
2023-06-19T11:10:07.090Z,18.50
2023-06-19T11:12:37.023Z,19.08
2023-06-19T11:15:06.446Z,18.65
2023-06-19T11:17:33.224Z,17.73
2023-06-19T11:20:00.401Z,17.77
2023-06-19T11:22:41.505Z,17.85
2023-06-19T11:25:10.602Z,18.77
2023-06-19T11:27:40.265Z,21.60
2023-06-19T11:30:08.434Z,17.88
2023-06-19T11:32:41.791Z,17.45
2023-06-19T11:35:12.177Z,17.85
2023-06-19T11:37:43.103Z,17.50
2023-06-19T11:40:22.556Z,16.83
2023-06-19T11:42:52.380Z,18.05
2023-06-19T11:45:19.358Z,16.92
2023-06-19T11:47:47.291Z,16.70
2023-06-19T11:50:16.369Z,16.50
2023-06-19T11:52:45.998Z,18.35
2023-06-19T11:55:12.600Z,15.85
2023-06-19T11:57:39.941Z,16.90
2023-06-19T12:00:16.399Z,15.57
2023-06-19T12:02:45.286Z,15.30
2023-06-19T12:05:12.195Z,15.50
2023-06-19T12:07:39.160Z,16.25
2023-06-19T12:10:10.976Z,14.57
2023-06-19T12:12:39.012Z,15.93
2023-06-19T12:15:06.423Z,15.38
2023-06-19T12:17:34.124Z,15.43
2023-06-19T12:20:01.517Z,16.95
2023-06-19T12:22:28.554Z,16.85
2023-06-19T12:24:55.151Z,15.95
2023-06-19T12:27:21.679Z,19.52
2023-06-19T12:29:48.173Z,16.85
2023-06-19T12:32:14.724Z,17.58
2023-06-19T12:34:41.490Z,17.02
2023-06-19T12:37:08.045Z,16.50
2023-06-19T12:39:35.603Z,18.95
2023-06-19T12:42:02.222Z,15.52
2023-06-19T12:44:28.713Z,15.35
2023-06-19T12:46:55.594Z,15.80
2023-06-19T12:49:22.144Z,15.35
2023-06-19T12:51:52.241Z,16.65
2023-06-19T12:54:19.235Z,17.00
2023-06-19T12:56:46.462Z,16.13
2023-06-19T12:59:12.943Z,15.27
2023-06-19T13:01:39.474Z,18.33
2023-06-19T13:04:06.162Z,15.50
2023-06-19T13:06:33.186Z,20.00
2023-06-19T13:08:59.708Z,15.68
2023-06-19T13:11:26.738Z,13.27
2023-06-19T13:13:53.214Z,15.02
2023-06-19T13:16:27.199Z,15.43
2023-06-19T13:18:57.017Z,16.55
2023-06-19T13:21:23.764Z,14.18
2023-06-19T13:23:50.696Z,15.18
2023-06-19T13:26:17.561Z,16.02
2023-06-19T13:28:44.133Z,14.43
2023-06-19T13:31:10.647Z,23.08
2023-06-19T13:33:37.181Z,13.43
2023-06-19T13:36:03.974Z,14.80
2023-06-19T13:38:30.501Z,12.82
2023-06-19T13:40:56.993Z,12.85
2023-06-19T13:43:24.398Z,13.07
2023-06-19T13:45:51.056Z,12.32
2023-06-19T13:48:18.532Z,13.02
2023-06-19T13:50:45.067Z,12.20
2023-06-19T13:53:11.577Z,12.85
2023-06-19T13:55:38.100Z,12.65
2023-06-19T13:58:04.616Z,12.25
2023-06-19T14:00:31.853Z,13.07
2023-06-19T14:02:58.462Z,12.98
2023-06-19T14:05:25.010Z,13.45
2023-06-19T14:07:53.087Z,14.25
2023-06-19T14:10:19.588Z,13.80
2023-06-19T14:12:46.072Z,13.20
2023-06-19T14:15:12.739Z,12.65
2023-06-19T14:17:39.471Z,13.90
2023-06-19T14:20:06.953Z,11.88
2023-06-19T14:22:33.459Z,12.85
2023-06-19T14:25:02.818Z,11.80
2023-06-19T14:27:29.797Z,14.85
2023-06-19T14:29:56.785Z,14.77
2023-06-19T14:32:27.159Z,18.30
2023-06-19T14:34:53.736Z,20.63
2023-06-19T14:37:20.544Z,18.20
2023-06-19T14:39:47.208Z,12.18
2023-06-19T14:42:13.778Z,12.95
2023-06-19T14:44:40.343Z,13.13
2023-06-19T14:47:07.835Z,13.75
2023-06-19T14:49:34.364Z,13.25
2023-06-19T14:52:01.190Z,13.43
2023-06-19T14:54:27.816Z,13.93
2023-06-19T14:56:54.622Z,12.13
2023-06-19T14:59:21.185Z,13.25
2023-06-19T15:01:47.775Z,13.48
2023-06-19T15:04:14.501Z,11.48
2023-06-19T15:06:41.188Z,14.00
2023-06-19T15:09:07.721Z,11.60
2023-06-19T15:11:34.550Z,11.38
2023-06-19T15:14:01.292Z,11.38
2023-06-19T15:16:27.841Z,11.95
2023-06-19T15:18:55.244Z,13.10
2023-06-19T15:21:22.040Z,11.52
2023-06-19T15:23:50.313Z,13.13
2023-06-19T15:26:16.880Z,13.55
2023-06-19T15:28:44.974Z,14.70
2023-06-19T15:31:11.510Z,11.65
2023-06-19T15:33:37.986Z,20.38
2023-06-19T15:36:04.627Z,13.52
2023-06-19T15:38:31.185Z,12.75
2023-06-19T15:40:57.848Z,14.38
2023-06-19T15:43:29.538Z,11.93
2023-06-19T15:45:57.207Z,11.82
2023-06-19T15:48:23.877Z,12.77
2023-06-19T15:50:50.475Z,19.88
2023-06-19T15:53:17.125Z,12.68
2023-06-19T15:55:43.848Z,12.35
2023-06-19T15:58:10.483Z,14.40
2023-06-19T16:00:37.083Z,13.05
2023-06-19T16:03:03.876Z,12.07
2023-06-19T16:05:30.583Z,12.88
2023-06-19T16:07:57.167Z,11.95
2023-06-19T16:10:24.179Z,15.52
2023-06-19T16:12:50.843Z,12.82
2023-06-19T16:15:18.587Z,12.48
2023-06-19T16:17:48.155Z,13.45
2023-06-19T16:20:14.746Z,14.18
2023-06-19T16:22:41.240Z,14.20
2023-06-19T16:25:10.138Z,12.80
2023-06-19T16:27:36.647Z,11.52
2023-06-19T16:30:04.085Z,12.65
2023-06-19T16:32:30.645Z,14.05
2023-06-19T16:34:57.201Z,15.07
2023-06-19T16:37:23.745Z,15.52
2023-06-19T16:39:50.258Z,13.75
2023-06-19T16:42:16.955Z,12.73
2023-06-19T16:44:43.612Z,16.63
2023-06-19T16:47:10.227Z,13.80
2023-06-19T16:49:36.835Z,13.80
2023-06-19T16:52:03.536Z,13.20
2023-06-19T16:54:30.021Z,12.80
2023-06-19T16:56:56.733Z,13.05
2023-06-19T16:59:23.324Z,13.80
2023-06-19T17:01:49.808Z,14.60
2023-06-19T17:04:16.348Z,14.60
2023-06-19T17:06:42.997Z,16.55
2023-06-19T17:09:10.225Z,23.25
2023-06-19T17:11:38.958Z,19.48
2023-06-19T17:14:07.254Z,18.00
2023-06-19T17:16:33.949Z,15.35
2023-06-19T17:19:00.563Z,14.88
2023-06-19T17:21:27.168Z,14.13
2023-06-19T17:23:55.381Z,17.50
2023-06-19T17:26:21.874Z,14.05
2023-06-19T17:28:48.457Z,14.57
2023-06-19T17:31:15.177Z,15.15
2023-06-19T17:33:42.149Z,13.88
2023-06-19T17:36:10.877Z,15.93
2023-06-19T17:38:37.656Z,14.65
2023-06-19T17:41:05.522Z,16.05
2023-06-19T17:43:32.216Z,13.20
2023-06-19T17:45:58.786Z,15.70
2023-06-19T17:48:25.255Z,14.23
2023-06-19T17:50:51.786Z,15.38
2023-06-19T17:53:18.275Z,15.20
2023-06-19T17:55:44.845Z,16.17
2023-06-19T17:58:11.430Z,23.38
2023-06-19T18:00:37.980Z,17.70
2023-06-19T18:03:05.455Z,17.17
2023-06-19T18:05:32.102Z,18.52
2023-06-19T18:07:58.605Z,17.65
2023-06-19T18:10:25.225Z,20.85
2023-06-19T18:12:51.954Z,21.40
2023-06-19T18:15:18.428Z,21.35
2023-06-19T18:17:45.167Z,30.77
2023-06-19T18:20:12.485Z,31.27
2023-06-19T18:22:39.647Z,43.80
2023-06-19T18:25:06.481Z,47.92
2023-06-19T18:27:33.522Z,46.35
2023-06-19T18:30:03.132Z,32.83
2023-06-19T18:32:30.957Z,24.17
2023-06-19T18:34:59.045Z,18.00
2023-06-19T18:37:26.063Z,21.23
2023-06-19T18:39:55.137Z,18.02
2023-06-19T18:42:21.932Z,17.98
2023-06-19T18:44:48.477Z,17.98
2023-06-19T18:47:14.989Z,22.25
2023-06-19T18:49:41.573Z,20.00
2023-06-19T18:52:08.216Z,17.60
2023-06-19T18:54:34.903Z,19.75
2023-06-19T18:57:01.458Z,19.95
2023-06-19T18:59:27.970Z,18.73
2023-06-19T19:01:54.569Z,19.75
2023-06-19T19:04:21.248Z,23.13
2023-06-19T19:06:47.743Z,19.90
2023-06-19T19:09:14.273Z,19.48
2023-06-19T19:11:40.790Z,21.92
2023-06-19T19:14:07.456Z,25.50
2023-06-19T19:16:34.024Z,22.33
2023-06-19T19:19:00.664Z,17.98
2023-06-19T19:21:27.225Z,19.38
2023-06-19T19:23:53.828Z,19.05
2023-06-19T19:26:20.429Z,20.23
2023-06-19T19:28:46.962Z,20.05
2023-06-19T19:31:13.472Z,19.38
2023-06-19T19:33:40.437Z,21.58
2023-06-19T19:36:07.964Z,20.45
2023-06-19T19:38:34.808Z,18.58
2023-06-19T19:41:01.785Z,21.30
2023-06-19T19:43:28.393Z,20.35
2023-06-19T19:45:55.066Z,20.73
2023-06-19T19:48:21.962Z,23.40
2023-06-19T19:50:48.567Z,20.25
2023-06-19T19:53:15.227Z,21.98
2023-06-19T19:55:41.888Z,22.15
2023-06-19T19:58:08.441Z,21.25
2023-06-19T20:00:34.898Z,20.88
2023-06-19T20:03:01.485Z,21.08
2023-06-19T20:05:28.095Z,20.00
2023-06-19T20:07:54.623Z,23.90
2023-06-19T20:10:21.223Z,22.27
2023-06-19T20:12:47.721Z,21.27
2023-06-19T20:15:14.530Z,21.30
2023-06-19T20:17:41.125Z,22.23
2023-06-19T20:20:08.573Z,21.27
2023-06-19T20:22:35.029Z,21.45
2023-06-19T20:25:01.796Z,22.63
2023-06-19T20:27:28.479Z,23.15
2023-06-19T20:29:55.068Z,23.58
2023-06-19T20:32:21.624Z,21.90
2023-06-19T20:34:48.182Z,22.20
2023-06-19T20:37:15.488Z,22.48
2023-06-19T20:39:42.474Z,22.67
2023-06-19T20:42:09.150Z,21.75
2023-06-19T20:44:37.514Z,22.23
2023-06-19T20:47:04.864Z,26.27
2023-06-19T20:49:31.358Z,23.33
2023-06-19T20:51:57.863Z,23.63
2023-06-19T20:54:24.497Z,22.98
2023-06-19T20:56:51.060Z,22.63
2023-06-19T20:59:17.511Z,22.33
2023-06-19T21:01:44.914Z,23.70
2023-06-19T21:04:11.533Z,24.10
2023-06-19T21:06:38.117Z,23.38
2023-06-19T21:09:05.461Z,22.45
2023-06-19T21:11:32.433Z,23.38
2023-06-19T21:13:59.052Z,23.63
2023-06-19T21:16:25.812Z,23.63
2023-06-19T21:18:52.421Z,25.42
2023-06-19T21:21:18.994Z,23.58
2023-06-19T21:23:45.554Z,24.33
2023-06-19T21:26:12.020Z,24.23
2023-06-19T21:28:38.538Z,23.33
2023-06-19T21:31:05.123Z,23.90
2023-06-19T21:33:33.309Z,23.23
2023-06-19T21:35:59.954Z,24.08
2023-06-19T21:38:28.732Z,23.20
2023-06-19T21:40:55.213Z,22.40
2023-06-19T21:43:21.784Z,23.83
2023-06-19T21:45:48.660Z,23.27
2023-06-19T21:48:15.349Z,25.52
2023-06-19T21:50:41.899Z,24.88
2023-06-19T21:53:08.488Z,23.73
2023-06-19T21:55:35.003Z,24.60
2023-06-19T21:58:01.679Z,24.63
2023-06-19T22:00:29.111Z,25.02
2023-06-19T22:02:58.230Z,24.98
2023-06-19T22:05:25.088Z,24.83
2023-06-19T22:07:51.743Z,23.35
2023-06-19T22:10:18.584Z,23.88
2023-06-19T22:12:45.699Z,27.75
2023-06-19T22:15:12.437Z,25.17
2023-06-19T22:17:38.984Z,23.88
2023-06-19T22:20:06.161Z,23.20
2023-06-19T22:22:32.727Z,24.23
2023-06-19T22:24:59.299Z,23.42
2023-06-19T22:27:25.808Z,25.23
2023-06-19T22:29:52.354Z,25.45
2023-06-19T22:32:20.004Z,24.05
2023-06-19T22:34:46.793Z,25.05
2023-06-19T22:37:13.378Z,23.40
2023-06-19T22:39:40.062Z,23.83
2023-06-19T22:42:06.996Z,26.13
2023-06-19T22:44:33.613Z,25.60
2023-06-19T22:47:00.080Z,25.88
2023-06-19T22:49:30.172Z,24.20
2023-06-19T22:51:58.084Z,24.13
2023-06-19T22:54:24.838Z,25.88
2023-06-19T22:56:51.454Z,26.42
2023-06-19T22:59:17.984Z,27.20
2023-06-19T23:01:44.463Z,28.05
2023-06-19T23:04:11.031Z,26.27
2023-06-19T23:06:43.685Z,25.95
2023-06-19T23:09:13.607Z,25.35
2023-06-19T23:11:40.315Z,26.00
2023-06-19T23:14:07.347Z,28.05
2023-06-19T23:16:33.890Z,26.27
2023-06-19T23:19:00.480Z,24.30
2023-06-19T23:21:31.118Z,25.35
2023-06-19T23:23:59.018Z,26.80
2023-06-19T23:26:25.742Z,26.40
2023-06-19T23:28:52.870Z,26.13
2023-06-19T23:31:22.238Z,26.27
2023-06-19T23:33:53.390Z,27.58
2023-06-19T23:36:19.971Z,25.87
2023-06-19T23:38:48.908Z,25.98
2023-06-19T23:41:15.539Z,24.42
2023-06-19T23:43:42.100Z,25.30
2023-06-19T23:46:09.088Z,25.33
2023-06-19T23:48:35.651Z,25.67
2023-06-19T23:51:02.269Z,24.85
2023-06-19T23:53:28.814Z,25.67
2023-06-19T23:55:55.388Z,25.65
2023-06-19T23:58:22.017Z,25.58
